News    GLOBAL    TV    HD    3D    Ultra HD    Radio    Data    Temp.FTA    [-]    Clair

Annuaire & Zapping Satellite Européen
Recherche des Chaînes:
Hot Bird 13E (13.0°E) Répéteur 158
10.0E>
<16.0E

Position orbitale Satellite Norad .ini News chaînes Chaines en clair Longitude Declination now Max declination Azimuth Elevation Mise à jour
13.0°E Hot Bird 13C 33459 454 116 12.94°E -0.02° 0.04° N/A N/A 2023-02-01 16:24
13.0°E Hot Bird 13E 28946 280 185 12.94°E 0.04° 0.05° N/A N/A 2023-01-26 19:08
13.0°E Hot Bird 13B 29270 656 305 12.93°E -0.06° 0.06° N/A N/A 2023-02-04 02:39

Tri par: Cryptage: Affichage:

33 réponse(s) - Tri par fréquence - Dernières mises à jour: CET

Pos Satellite Frequence Pol Txp Beam Standard Modulation SR/FEC Network, bitrate NID TID
13.0°E 33Hot Bird 13E 11662.00V158EuropeDVB-S28PSK27500 3/4Telespazio, 59.9 Mb/s 31815800 Formulaire de mise à jour des informations publiées
TRM Network Italie Divers Telespazio Clair 16922 1351 1352 ita  1355  1351    2019-06-06 +
Redlight HD Italie Pornographique Nova
Platforma Canal+
Polsat Box
TeleSat
Conax
DVB Scrambling
Irdeto 2
Mediaguard 3
Nagravision 3
Viaccess 4.0
Viaccess 5.0
16932 225 235  1932  225    2021-05-13 +

Tele Padre Pio Italie Religion Telespazio Clair 16952 650 651 ita  1070  650    2019-08-17 +
Tele 5 Polska
Pologne Généraliste Telespazio Clair 16955 2011 2012 pol  1855  2011    2016-03-25 +
Polonia 1
Pologne Généraliste Telespazio Clair 16956 2021 2022 pol  1856  2021    2016-03-25 +
Water Planet V1 Pologne Documentaires Polsat Box Irdeto 2
Nagravision 3
16957 2041 2042 pol  1957  2041    2021-07-27 +
Water Planet
Pologne Documentaires Polsat Box Irdeto 2
Nagravision 3
16958 2041 2042 pol  1858  2041    2018-08-04 +
Novela TV
Pologne Séries Polsat Box Irdeto 2
Nagravision 3
16960 2061 2062 pol  1860  2061    2018-08-04 +
TV Romania International Roumanie Généraliste Telespazio Clair 16961 2967 3967 rom  1967  2967  5967  2019-07-21 +
Radio Italia TV Italie Musicale Telespazio Clair 16962 1010 1012 ita  1962  1010    2017-01-19 +
EQUtv Italie Courses Telespazio Clair 16963 2963 3963 ita  1963  2963    2022-03-04 +
Arte Atelier Italie Culturelle Telespazio Clair 16964 1101 1102 ita  1105  1101    2019-06-04 +
Antichità Chiossone Italie Télé Achat Telespazio Clair 16965 1976 1977 eng  1965  1976    2018-02-05 +
Radio Italia Trend TV HD Italie Musicale Telespazio Clair 16966 1968 1969 ita  1966  1968    2019-07-16 +
Suryoyo Sat Suède Divers Telespazio Clair 16967 2447 2448 eng  2449  2447    2019-06-27 +
Venus TV Italy Italie Divers Telespazio Clair 16969 1131 1132 ita  1136  1131    2019-06-06 +
Music Life Italie Musicale Telespazio Clair 16970 1131 1132 ita  1337  1131    2019-06-06 +
Lazio Channel Italie Généraliste Telespazio Clair 16971 1131 1132 ita  1348  1131    2019-06-06 +
Fuego Italie Erotique Telespazio Clair 16973 1131 1132 ita  1339  1131    2019-06-06 +
RDS Social TV Italie Chat Telespazio Clair 16975 5302 5303 ita
5305 
1985  5302    2021-01-26 +
Radio Kiss Kiss TV Italie Divertissement Telespazio Clair 16976 2017 2018 ita  2015  2017    2019-10-30 +
RDS Social TV Italie Chat Telespazio Clair 16977 5302 5303 ita  1987  5302    2018-10-05 +
RDS Social TV Italie Chat Telespazio Clair 16978 1974 1975 ita  1978  1974    2020-09-20 +
QVC Italia HD Italie Télé Achat Telespazio Clair 16979 1833 1834 ita  1679  1833    2019-11-06 +
CIAO Italie Divers Telespazio Clair 16983 1191 1192 ita  1195  1191    2019-06-17 +
Napoli Mia Italie Régionale Telespazio Clair 16986 1191 1192 eng  1196  1191    2019-06-04 +
TVA Vicenza Italie Régionale Telespazio Clair 16988 1993 1994 ita  1995  1993    2016-03-25 +
Videolina
Italie Régionale Telespazio Clair 16992 2195 2193  1770  2195    2018-12-22 +
TeleItalia Italie Pornographique Telespazio Clair 16993 1191 1192 eng  1197  1191    2019-06-04 +
Eursat Italie Divers Telespazio Clair 16996 1131 1132 ita  1135  1131    2019-06-04 +
Digiquest Promo indéfini Bandes Annonces Telespazio Clair 16998 2001 2202 eng  1936  2001    2018-10-27 +
Vivid Red HD Pologne Pornographique Nova
Platforma Canal+
Polsat Box
Conax
DVB Scrambling
Irdeto 2
Nagravision 3
Viaccess 4.0
Viaccess 5.0
16999 2110 2111  2100  2110    2021-05-13 +
Radio Number One Telespazio Clair 16981   199 ita  2099  199    2019-05-08

Caractéristiques détaillées des flux du transpondeur (11662.00 V)

SID Ident. PID Format Colorimetry Width Height Aspect Ratio Frame rate
Sampling rate
Bitrate mode Bitrate Scan type Mise à jour
16922 TRM h24 1351 AVC 3.2, High 4:2:0 720 576 1.818 25.000 FPS MBAFF 2023-02-04
16922 TRM h24 1352 MPEG Audio, Layer 22 channels 48000 CBR 96000 2023-02-04
16932 Redlight HD 225 AVC 4, High 4:2:0 N/A N/A 25.000 FPS 2023-02-04
16932 Redlight HD 235 MPEG Audio, Layer 2 CBR 2023-02-04
16952 Padre Pio Tv 650 AVC 3.2, High 4:2:0 960 1080 1.778 25.000 FPS CBR MBAFF 2023-02-04
16952 Padre Pio Tv 651 MPEG Audio, Layer 22 channels 48000 CBR 128000 2023-02-04
16955 TELE 5 2011 AVC 4, High 4:2:0 720 576 1.778 25.000 FPS CBR Interlaced 2023-02-04
16955 TELE 5 2012 MPEG Audio, Layer 22 channels 48000 CBR 128000 2023-02-04
16956 Polonia 1 2021 AVC 4, High 4:2:0 720 576 1.778 25.000 FPS CBR Interlaced 2023-02-04
16956 Polonia 1 2022 MPEG Audio, Layer 22 channels 48000 CBR 128000 2023-02-04
16957 Water Planet V1 2041 AVC N/A N/A FPS 2023-02-04
16957 Water Planet V1 2042 MPEG Audio 2023-02-04
16960 Novela Tv 2061 AVC N/A N/A FPS 2023-02-04
16960 Novela Tv 2062 MPEG Audio 2023-02-04
16961 TVR International HB 2967 AVC 3, High 4:2:0 720 576 1.818 25.000 FPS MBAFF 2023-02-04
16961 TVR International HB 3967 MPEG Audio, Layer 22 channels 48000 CBR 192000 2023-02-04
16961 TVR International HB 5967 Teletext 2023-02-04
16962 Radio Italia Tv HD 1010 AVC 4.1, High 4:2:0 1920 1080 1.778 25.000 FPS Interlaced 2023-02-04
16962 Radio Italia Tv HD 1012 MPEG Audio, Layer 22 channels 48000 CBR 256000 2023-02-04
16963 EQUtv 2963 AVC 4, High 4:2:0 1920 1080 1.778 25.000 FPS VBR Interlaced 2023-02-04
16963 EQUtv 3963 MPEG Audio, Layer 22 channels 48000 CBR 128000 2023-02-04
16964 Arte Atelier 1101 AVC 3.2, High 4:2:0 720 576 1.818 25.000 FPS MBAFF 2023-02-04
16964 Arte Atelier 1102 MPEG Audio, Layer 22 channels 48000 CBR 64000 2023-02-04
16965 Antichita Chiossone 1976 AVC 3, Main 4:2:0 704 576 1.778 25.000 FPS Interlaced 2023-02-04
16965 Antichita Chiossone 1977 MPEG Audio, Layer 22 channels 48000 CBR 64000 2023-02-04
16966 Radio Italia Trend TV HD 1968 AVC 4, Main 4:2:0 1920 1080 1.778 25.000 FPS Interlaced 2023-02-04
16966 Radio Italia Trend TV HD 1969 MPEG Audio, Layer 22 channels 48000 CBR 128000 2023-02-04
16967 SURYOYO SAT 2447 AVC 3, Main 4:2:0 720 576 1.818 25.000 FPS Interlaced 2023-02-04
16967 SURYOYO SAT 2448 MPEG Audio, Layer 22 channels 48000 CBR 128000 2023-02-04
16976 Radio Kiss Kiss Tv 2017 AVC 4, High 4:2:0 1440 1080 1.778 25.000 FPS Interlaced 2023-02-04
16976 Radio Kiss Kiss Tv 2018 MPEG Audio, Layer 22 channels 48000 CBR 192000 2023-02-04
16977 RDS Social TV 5302 AVC 4, Main 4:2:0 1920 1080 1.778 25.000 FPS Interlaced 2023-02-04
16977 RDS Social TV 5303 MPEG Audio, Layer 22 channels 48000 CBR 256000 2023-02-04
16977 RDS Social TV 5305 AACLATM2 channels
Front: L R
48000 VBR 2023-02-04
16978 RDS Relax 1974 AVC 3.1, High 4:2:0 720 576 1.818 25.000 FPS Interlaced 2023-02-04
16978 RDS Relax 1975 MPEG Audio, Layer 22 channels 48000 CBR 128000 2023-02-04
16979 QVC HD 1833 AVC 4.1, High 4:2:0 1920 1080 1.778 25.000 FPS Interlaced 2023-02-04
16979 QVC HD 1834 MPEG Audio, Layer 22 channels 48000 CBR 192000 2023-02-04
16981 Radio Number One 199 MPEG Audio, Layer 22 channels 48000 CBR 160000 2023-02-04
16988 TVA Vicenza 1993 AVC 3, High 4:2:0 720 576 1.778 25.000 FPS CBR MBAFF 2023-02-04
16988 TVA Vicenza 1994 MPEG Audio, Layer 22 channels 48000 CBR 96000 2023-02-04
16992 VIDEOLINA 2193 MPEG Audio, Layer 21 channel 48000 CBR 96000 2023-02-04
16992 VIDEOLINA 2195 AVC 3, High 4:2:0 720 576 1.818 25.000 FPS CBR MBAFF 2023-02-04
16993 Teleitalia 1191 AVC 4.2, High 4:2:0 720 576 1.818 25.000 FPS MBAFF 2023-02-04
16993 Teleitalia 1192 MPEG Audio, Layer 22 channels 48000 CBR 64000 2023-02-04
16996 EURSAT 1131 AVC 3.2, High 4:2:0 720 576 1.364 25.000 FPS MBAFF 2023-02-04
16996 EURSAT 1132 MPEG Audio, Layer 22 channels 48000 CBR 64000 2023-02-04
16998 Digiquest Promo 2001 AVC 3.1, High 4:2:0 544 576 1.832 25.000 FPS Interlaced 2023-02-04
16998 Digiquest Promo 2202 MPEG Audio, Layer 22 channels 48000 CBR 64000 2023-02-04
16999 Vivid Red HD 2110 AVC 4.1, High N/A N/A FPS 2023-02-04
16999 Vivid Red HD 2111 MPEG Audio 2023-02-04

Corrections / mises à jour

Légende

8K - Ultra HD

4K - Ultra HD

Haute définition

Diffusion partielle ou totale en 16/9

     

Video: MPEG-4/AVC/H-264

     

Video: MPEG-H/HEVC/H-265

     

Video: MPEG-I/VVC/H-266

     

Clair

     

Crypté

Affiche une capture d´image

3D

Vidéos en Direct

+

Historique des news

     

DVB-S

     

DVB-S2

     

DVB-S2X


PROFIL - ACCUEIL - NEWS - SATELLITES - BOUQUETS - CHAINES - RECHERCHE - FAISCEAUX - FEEDS - CIMETIERE - Corrections / mises à jour

Le contenu de ce site est protégé par copyright et appartient à KingOfSat, excepté les images contenues dans les captures d'écran qui appartiennent à leurs propriétaires respectifs. Ces images sont uniquement proposées à des fins d'illustration, d'identification et de promotion des chaînes TV correspondantes. Pour toute question / remarque relative au copyright, merci de contacter le webmaster.